createdAt,value
2022-07-27T00:01:54.679Z,160759.38
2022-07-27T00:04:22.487Z,160766.06
2022-07-27T00:06:50.461Z,160768.72
2022-07-27T00:09:19.691Z,160772.75
2022-07-27T00:11:47.347Z,160772.75
2022-07-27T00:14:15.222Z,160768.72
2022-07-27T00:16:42.720Z,160767.41
2022-07-27T00:19:10.316Z,160772.75
2022-07-27T00:21:44.403Z,160763.34
2022-07-27T00:24:12.704Z,160767.41
2022-07-27T00:26:40.252Z,160767.41
2022-07-27T00:29:07.385Z,160759.38
2022-07-27T00:31:34.632Z,160759.38
2022-07-27T00:34:02.091Z,160766.06
2022-07-27T00:36:29.375Z,160774.09
2022-07-27T00:38:56.849Z,160782.13
2022-07-27T00:41:24.256Z,160779.47
2022-07-27T00:43:59.382Z,160774.09
2022-07-27T00:46:28.729Z,160767.41
2022-07-27T00:48:56.072Z,160776.75
2022-07-27T00:51:23.674Z,160760.69
2022-07-27T00:53:52.590Z,160788.81
2022-07-27T00:56:20.132Z,160796.84
2022-07-27T00:58:51.651Z,160788.81
2022-07-27T01:01:19.494Z,160799.50
2022-07-27T01:03:47.995Z,160783.44
2022-07-27T01:06:15.772Z,160803.56
2022-07-27T01:08:43.460Z,160814.28
2022-07-27T01:11:11.353Z,160804.88
2022-07-27T01:13:38.984Z,160795.53
2022-07-27T01:16:07.309Z,160800.91
2022-07-27T01:18:39.161Z,160798.19
2022-07-27T01:21:09.146Z,160807.59
2022-07-27T01:23:36.749Z,160792.88
2022-07-27T01:26:05.767Z,160794.19
2022-07-27T01:28:33.040Z,160786.16
2022-07-27T01:31:00.848Z,160783.44
2022-07-27T01:33:28.391Z,160748.63
2022-07-27T01:35:57.445Z,160737.94
2022-07-27T01:38:25.043Z,160720.50
2022-07-27T01:40:53.120Z,160713.81
2022-07-27T01:43:21.317Z,160700.41
2022-07-27T01:45:49.125Z,160707.09
2022-07-27T01:48:16.230Z,160696.41
2022-07-27T01:50:47.668Z,160685.69
2022-07-27T01:53:15.640Z,160684.28
2022-07-27T01:55:43.007Z,160678.94
2022-07-27T01:58:10.363Z,160665.59
2022-07-27T02:00:38.318Z,160654.84
2022-07-27T02:03:07.330Z,160654.84
2022-07-27T02:05:35.128Z,160641.44
2022-07-27T02:08:03.978Z,160636.09
2022-07-27T02:10:31.749Z,160628.06
2022-07-27T02:12:58.970Z,160618.69
2022-07-27T02:15:27.885Z,160621.34
2022-07-27T02:18:33.317Z,160607.97
2022-07-27T02:20:56.824Z,160612.00
2022-07-27T02:23:24.110Z,160595.94
2022-07-27T02:25:51.480Z,160595.94
2022-07-27T02:28:18.773Z,160581.22
2022-07-27T02:30:46.218Z,160590.59
2022-07-27T02:33:13.659Z,160606.63
2022-07-27T02:35:41.116Z,160593.25
2022-07-27T02:38:08.269Z,160625.41
2022-07-27T02:40:35.470Z,160636.09
2022-07-27T02:43:02.970Z,160642.78
2022-07-27T02:45:30.204Z,160650.81
2022-07-27T02:47:57.511Z,160641.44
2022-07-27T02:50:24.994Z,160648.16
2022-07-27T02:52:52.158Z,160638.78
2022-07-27T02:55:19.408Z,160646.81
2022-07-27T02:57:47.031Z,160646.81
2022-07-27T03:00:16.100Z,160618.69
2022-07-27T03:02:43.384Z,160634.75
2022-07-27T03:05:11.578Z,160633.44
2022-07-27T03:07:38.962Z,160629.38
2022-07-27T03:10:07.023Z,160609.34
2022-07-27T03:12:34.491Z,160622.69
2022-07-27T03:15:01.665Z,160621.34
2022-07-27T03:17:29.051Z,160618.69
2022-07-27T03:19:56.339Z,160609.34
2022-07-27T03:22:23.544Z,160621.34
2022-07-27T03:24:50.821Z,160629.38
2022-07-27T03:27:18.220Z,160609.34
2022-07-27T03:29:45.965Z,160614.66
2022-07-27T03:32:13.138Z,160613.34
2022-07-27T03:34:40.651Z,160591.91
2022-07-27T03:37:07.952Z,160598.59
2022-07-27T03:39:35.140Z,160587.94
2022-07-27T03:42:02.612Z,160598.59
2022-07-27T03:44:30.113Z,160577.19
2022-07-27T03:46:57.322Z,160591.91
2022-07-27T03:49:24.902Z,160581.22
2022-07-27T03:51:52.054Z,160573.16
2022-07-27T03:54:19.243Z,160575.88
2022-07-27T03:56:46.668Z,160578.50
2022-07-27T03:59:14.845Z,160574.53
2022-07-27T04:01:42.428Z,160566.50
2022-07-27T04:04:10.054Z,160575.88
2022-07-27T04:06:37.249Z,160567.84
2022-07-27T04:09:11.924Z,160575.88
2022-07-27T04:11:43.419Z,160562.47
2022-07-27T04:14:12.660Z,160590.59
2022-07-27T04:16:40.522Z,160598.59
2022-07-27T04:19:08.545Z,160605.31
2022-07-27T04:21:36.030Z,160609.34
2022-07-27T04:24:03.221Z,160603.97
2022-07-27T04:26:30.824Z,160597.28
2022-07-27T04:28:58.126Z,160609.34
2022-07-27T04:31:25.399Z,160628.06
2022-07-27T04:33:52.909Z,160637.47
2022-07-27T04:36:19.981Z,160642.78
2022-07-27T04:38:47.332Z,160672.22
2022-07-27T04:41:14.774Z,160693.75
2022-07-27T04:43:42.090Z,160709.81
2022-07-27T04:46:14.706Z,160716.50
2022-07-27T04:48:49.231Z,160743.31
2022-07-27T04:51:17.957Z,160768.72
2022-07-27T04:53:52.420Z,160791.47
2022-07-27T04:56:24.873Z,160802.22
2022-07-27T04:58:52.232Z,160830.34
2022-07-27T05:01:19.556Z,160870.56
2022-07-27T05:03:46.911Z,160861.16
2022-07-27T05:06:14.350Z,160885.28
2022-07-27T05:08:41.554Z,160905.34
2022-07-27T05:11:08.742Z,160922.78
2022-07-27T05:13:40.431Z,160963.00
2022-07-27T05:16:09.450Z,160997.91
2022-07-27T05:18:38.190Z,161066.22
2022-07-27T05:21:06.564Z,161125.22
2022-07-27T05:23:34.790Z,161158.72
2022-07-27T05:26:02.312Z,161220.41
2022-07-27T05:28:29.794Z,161306.25
2022-07-27T05:30:56.950Z,161388.09
2022-07-27T05:33:24.133Z,161440.41
2022-07-27T05:35:51.601Z,161524.97
2022-07-27T05:38:18.863Z,161559.88
2022-07-27T05:40:46.531Z,161606.84
2022-07-27T05:43:14.171Z,161602.78
2022-07-27T05:45:41.412Z,161665.88
2022-07-27T05:48:08.679Z,161720.94
2022-07-27T05:50:37.050Z,161743.78
2022-07-27T05:53:04.435Z,161829.69
2022-07-27T05:55:31.474Z,161857.91
2022-07-27T05:57:59.040Z,161923.69
2022-07-27T06:00:26.288Z,161996.25
2022-07-27T06:02:54.658Z,162064.78
2022-07-27T06:05:22.093Z,162029.84
2022-07-27T06:08:09.408Z,161931.72
2022-07-27T06:10:38.187Z,161938.44
2022-07-27T06:13:06.849Z,161950.56
2022-07-27T06:15:34.639Z,162027.19
2022-07-27T06:18:03.939Z,162012.41
2022-07-27T06:20:31.794Z,162145.38
2022-07-27T06:23:00.564Z,162161.53
2022-07-27T06:25:34.159Z,162168.25
2022-07-27T06:28:04.810Z,162181.75
2022-07-27T06:30:33.448Z,162157.47
2022-07-27T06:33:04.355Z,162256.97
2022-07-27T06:35:32.636Z,162263.69
2022-07-27T06:38:01.241Z,162247.56
2022-07-27T06:40:30.093Z,162185.75
2022-07-27T06:42:58.660Z,162228.75
2022-07-27T06:45:27.550Z,162169.59
2022-07-27T06:47:55.436Z,162149.41
2022-07-27T06:50:24.269Z,162197.84
2022-07-27T06:52:52.315Z,162256.97
2022-07-27T06:55:19.921Z,162336.25
2022-07-27T06:57:47.723Z,162450.56
2022-07-27T07:00:16.230Z,162455.97
2022-07-27T07:03:05.900Z,162449.22
2022-07-27T07:05:40.547Z,162330.91
2022-07-27T07:08:12.197Z,162337.63
2022-07-27T07:10:40.588Z,162394.16
2022-07-27T07:13:08.963Z,162476.13
2022-07-27T07:15:37.913Z,162489.59
2022-07-27T07:18:06.680Z,162610.66
2022-07-27T07:20:35.109Z,162644.28
2022-07-27T07:23:02.862Z,162681.94
2022-07-27T07:25:30.448Z,162649.69
2022-07-27T07:27:57.933Z,162589.09
2022-07-27T07:30:26.186Z,162482.84
2022-07-27T07:32:54.091Z,162520.50
2022-07-27T07:35:21.557Z,162554.13
2022-07-27T07:37:50.188Z,162527.22
2022-07-27T07:43:07.324Z,162632.19
2022-07-27T07:45:38.151Z,162556.78
2022-07-27T07:48:17.244Z,162551.44
2022-07-27T07:50:44.679Z,162482.84
2022-07-27T07:53:15.178Z,162503.03
2022-07-27T07:55:42.892Z,162628.16
2022-07-27T07:58:10.724Z,162634.84
2022-07-27T08:00:38.451Z,162527.22
2022-07-27T08:03:06.421Z,162408.94
2022-07-27T08:05:34.031Z,162431.78
2022-07-27T08:08:01.572Z,162470.75
2022-07-27T08:10:29.274Z,162568.91
2022-07-27T08:12:57.280Z,162574.31
2022-07-27T08:15:34.596Z,162649.69
2022-07-27T08:18:05.549Z,162595.88
2022-07-27T08:20:33.408Z,162613.31
2022-07-27T08:23:01.060Z,162673.88
2022-07-27T08:25:29.491Z,162642.97
2022-07-27T08:27:57.122Z,162595.88
2022-07-27T08:30:24.839Z,162672.53
2022-07-27T08:32:55.228Z,162758.63
2022-07-27T08:35:23.504Z,162675.22
2022-07-27T08:37:52.520Z,162660.41
2022-07-27T08:40:39.805Z,162680.59
2022-07-27T08:43:09.188Z,162609.31
2022-07-27T08:45:37.857Z,162593.16
2022-07-27T08:48:05.960Z,162633.50
2022-07-27T08:50:35.703Z,162628.16
2022-07-27T08:53:06.574Z,162660.41
2022-07-27T08:55:38.665Z,162708.84
2022-07-27T08:58:08.365Z,162595.88
2022-07-27T09:00:39.450Z,162617.38
2022-07-27T09:03:07.063Z,162595.88
2022-07-27T09:05:41.661Z,162652.34
2022-07-27T09:08:15.454Z,162746.50
2022-07-27T09:10:43.470Z,162778.81
2022-07-27T09:13:30.347Z,162572.97
2022-07-27T09:18:48.971Z,162462.69
2022-07-27T09:21:22.315Z,162446.56
2022-07-27T09:24:36.571Z,162445.22
2022-07-27T09:27:06.022Z,162462.69
2022-07-27T09:29:35.650Z,162414.28
2022-07-27T09:32:16.927Z,162390.09
2022-07-27T09:34:45.750Z,162355.09
2022-07-27T09:37:24.878Z,162351.03
2022-07-27T09:40:11.542Z,162398.16
2022-07-27T09:43:14.522Z,162396.81
2022-07-27T09:45:32.639Z,162399.47
2022-07-27T09:48:21.174Z,162445.22
2022-07-27T09:51:02.328Z,162507.03
2022-07-27T09:53:42.734Z,162517.81
2022-07-27T09:56:17.829Z,162509.75
2022-07-27T09:58:51.010Z,162507.03
2022-07-27T10:01:22.149Z,162532.59
2022-07-27T10:03:59.115Z,162490.91
2022-07-27T10:06:28.352Z,162399.47
2022-07-27T10:08:57.832Z,162364.47
2022-07-27T10:11:26.016Z,162411.59
2022-07-27T10:13:54.788Z,162531.28
2022-07-27T10:16:25.099Z,162656.38
2022-07-27T10:19:16.118Z,162628.16
2022-07-27T10:21:46.159Z,162660.41
2022-07-27T10:24:35.347Z,162699.47
2022-07-27T10:27:28.491Z,162706.13
2022-07-27T10:29:57.503Z,162665.81
2022-07-27T10:32:33.059Z,162707.53
2022-07-27T10:35:01.467Z,162718.25
2022-07-27T10:37:33.897Z,162612.00
2022-07-27T10:40:23.683Z,162516.47
2022-07-27T10:42:54.608Z,162399.47
2022-07-27T10:45:22.726Z,162443.88
2022-07-27T10:47:52.497Z,162481.53
2022-07-27T10:50:23.820Z,162501.69
2022-07-27T10:53:00.329Z,162504.38
2022-07-27T10:55:30.803Z,162568.91
2022-07-27T10:58:16.676Z,162620.06
2022-07-27T11:00:57.429Z,162633.50
2022-07-27T11:03:42.451Z,162532.59
2022-07-27T11:06:33.174Z,162445.22
2022-07-27T11:11:52.407Z,162451.94
2022-07-27T11:14:31.234Z,162504.38
2022-07-27T11:17:39.898Z,162578.31
2022-07-27T11:20:02.205Z,162572.97
2022-07-27T11:23:13.927Z,162576.97
2022-07-27T11:25:24.686Z,162552.78
2022-07-27T11:27:52.469Z,162558.19
2022-07-27T11:30:27.657Z,162538.00
2022-07-27T11:32:56.231Z,162558.19
2022-07-27T11:35:24.884Z,162578.31
2022-07-27T11:38:05.360Z,162559.50
2022-07-27T11:43:38.268Z,162515.16
2022-07-27T11:46:30.106Z,162508.44
2022-07-27T11:49:10.994Z,162445.22
2022-07-27T11:51:43.706Z,162429.06
2022-07-27T11:54:35.534Z,162375.25
2022-07-27T11:57:08.354Z,162356.41
2022-07-27T11:59:40.509Z,162295.97
2022-07-27T12:02:10.182Z,162312.06
2022-07-27T12:04:39.069Z,162301.31
2022-07-27T12:07:24.810Z,162310.75
2022-07-27T12:09:54.702Z,162324.19
2022-07-27T12:12:23.612Z,162384.66
2022-07-27T12:14:52.135Z,162402.22
2022-07-27T12:17:30.798Z,162442.50
2022-07-27T12:20:00.147Z,162528.56
2022-07-27T12:22:36.723Z,162622.78
2022-07-27T12:25:16.409Z,162606.59
2022-07-27T12:28:06.132Z,162651.03
2022-07-27T12:30:39.140Z,162652.34
2022-07-27T12:33:09.091Z,162599.94
2022-07-27T12:35:47.244Z,162515.16
2022-07-27T12:38:14.734Z,162451.94
2022-07-27T12:40:49.087Z,162426.38
2022-07-27T12:43:19.394Z,162403.53
2022-07-27T12:45:48.769Z,162388.72
2022-07-27T12:48:25.548Z,162344.34
2022-07-27T12:51:07.533Z,162347.03
2022-07-27T12:53:35.990Z,162372.59
2022-07-27T12:56:10.010Z,162386.00
2022-07-27T12:58:37.778Z,162394.16
2022-07-27T13:01:06.068Z,162355.09
2022-07-27T13:03:33.557Z,162360.47
2022-07-27T13:06:10.686Z,162414.28
2022-07-27T13:08:41.469Z,162377.94
2022-07-27T13:11:08.595Z,162365.88
2022-07-27T13:13:35.848Z,162338.97
2022-07-27T13:16:03.336Z,162329.53
2022-07-27T13:18:30.668Z,162365.88
2022-07-27T13:20:58.263Z,162368.53
2022-07-27T13:23:25.741Z,162337.63
2022-07-27T13:25:52.892Z,162396.81
2022-07-27T13:28:20.199Z,162429.06
2022-07-27T13:30:47.671Z,162465.41
2022-07-27T13:33:14.903Z,162488.25
2022-07-27T13:35:42.661Z,162519.16
2022-07-27T13:38:16.090Z,162543.38
2022-07-27T13:40:45.453Z,162556.78
2022-07-27T13:43:13.270Z,162593.16
2022-07-27T13:45:42.810Z,162606.59
2022-07-27T13:48:12.257Z,162622.78
2022-07-27T13:50:40.094Z,162609.31
2022-07-27T13:53:07.435Z,162574.31
2022-07-27T13:55:35.334Z,162515.16
2022-07-27T13:58:02.838Z,162493.63
2022-07-27T14:00:30.192Z,162536.66
2022-07-27T14:02:57.540Z,162555.47
2022-07-27T14:05:26.415Z,162591.75
2022-07-27T14:07:56.193Z,162612.00
2022-07-27T14:10:42.097Z,162672.53
2022-07-27T14:13:12.409Z,162641.56
2022-07-27T14:15:53.726Z,162617.38
2022-07-27T14:18:29.110Z,162538.00
2022-07-27T14:20:58.144Z,162527.22
2022-07-27T14:23:26.752Z,162542.00
2022-07-27T14:25:55.289Z,162538.00
2022-07-27T14:28:24.234Z,162533.94
2022-07-27T14:30:53.755Z,162550.13
2022-07-27T14:33:21.931Z,162606.59
2022-07-27T14:35:49.133Z,162614.72
2022-07-27T14:38:24.783Z,162590.44
2022-07-27T14:40:57.453Z,162590.44
2022-07-27T14:43:25.747Z,162559.50
2022-07-27T14:45:52.953Z,162542.00
2022-07-27T14:48:32.142Z,162552.78
2022-07-27T14:51:05.373Z,162620.06
2022-07-27T14:53:33.893Z,162686.00
2022-07-27T14:56:01.618Z,162743.84
2022-07-27T14:58:29.655Z,162772.09
2022-07-27T15:00:58.950Z,162770.75
2022-07-27T15:03:26.762Z,162815.19
2022-07-27T15:05:54.717Z,162823.25
2022-07-27T15:08:24.991Z,162784.16
2022-07-27T15:10:52.238Z,162722.31
2022-07-27T15:13:19.733Z,162738.44
2022-07-27T15:15:52.746Z,162729.03
2022-07-27T15:18:21.202Z,162729.03
2022-07-27T15:20:48.520Z,162722.31
2022-07-27T15:23:16.941Z,162708.84
2022-07-27T15:25:44.915Z,162684.63
2022-07-27T15:28:12.322Z,162664.47
2022-07-27T15:30:39.868Z,162664.47
2022-07-27T15:33:07.615Z,162667.16
2022-07-27T15:35:35.517Z,162620.06
2022-07-27T15:38:03.214Z,162603.94
2022-07-27T15:40:42.628Z,162593.16
2022-07-27T15:43:15.088Z,162551.44
2022-07-27T15:45:43.699Z,162528.56
2022-07-27T15:48:12.099Z,162517.81
2022-07-27T15:50:42.129Z,162528.56
2022-07-27T15:53:11.126Z,162540.66
2022-07-27T15:55:38.492Z,162527.22
2022-07-27T15:58:06.813Z,162513.75
2022-07-27T16:00:39.398Z,162509.75
2022-07-27T16:03:08.699Z,162496.31
2022-07-27T16:05:36.462Z,162515.16
2022-07-27T16:08:03.952Z,162523.22
2022-07-27T16:10:31.205Z,162516.47
2022-07-27T16:13:00.509Z,162538.00
2022-07-27T16:15:46.714Z,162554.13
2022-07-27T16:18:14.180Z,162568.91
2022-07-27T16:20:41.380Z,162540.66
2022-07-27T16:23:14.462Z,162523.22
2022-07-27T16:26:03.251Z,162466.72
2022-07-27T16:28:34.297Z,162481.53
2022-07-27T16:31:02.802Z,162490.91
2022-07-27T16:33:30.361Z,162466.72
2022-07-27T16:35:58.082Z,162438.50
2022-07-27T16:38:26.086Z,162415.66
2022-07-27T16:40:53.367Z,162348.38
2022-07-27T16:43:20.672Z,162301.31
2022-07-27T16:45:48.090Z,162283.84
2022-07-27T16:48:15.350Z,162290.56
2022-07-27T16:50:42.449Z,162278.47
2022-07-27T16:53:10.720Z,162261.00
2022-07-27T16:55:38.884Z,162243.53
2022-07-27T16:58:06.190Z,162251.56
2022-07-27T17:00:38.436Z,162251.56
2022-07-27T17:03:08.936Z,162244.91
2022-07-27T17:05:37.615Z,162262.34
2022-07-27T17:08:06.076Z,162270.41
2022-07-27T17:10:33.599Z,162290.56
2022-07-27T17:13:01.787Z,162270.41
2022-07-27T17:15:30.239Z,162266.41
2022-07-27T17:17:57.519Z,162250.25
2022-07-27T17:20:32.877Z,162254.28
2022-07-27T17:23:04.379Z,162248.91
2022-07-27T17:25:31.750Z,162234.13
2022-07-27T17:27:59.129Z,162215.28
2022-07-27T17:30:26.188Z,162208.56
2022-07-27T17:32:54.164Z,162197.84
2022-07-27T17:35:21.405Z,162169.59
2022-07-27T17:38:05.661Z,162148.09
2022-07-27T17:40:35.590Z,162086.28
2022-07-27T17:43:03.232Z,162054.06
2022-07-27T17:45:31.330Z,161992.25
2022-07-27T17:47:59.808Z,161933.13
2022-07-27T17:50:27.696Z,161887.44
2022-07-27T17:52:57.054Z,161853.84
2022-07-27T17:55:25.468Z,161816.28
2022-07-27T17:57:54.033Z,161788.06
2022-07-27T18:00:21.596Z,161737.06
2022-07-27T18:02:55.370Z,161675.25
2022-07-27T18:05:26.306Z,161608.19
2022-07-27T18:07:56.141Z,161590.69
2022-07-27T18:10:26.621Z,161570.56
2022-07-27T18:13:00.369Z,161563.84
2022-07-27T18:15:53.829Z,161511.53
2022-07-27T18:18:27.869Z,161469.91
2022-07-27T18:21:01.748Z,161453.81
2022-07-27T18:23:31.153Z,161428.31
2022-07-27T18:25:59.810Z,161429.69
2022-07-27T18:28:29.470Z,161397.47
2022-07-27T18:30:58.988Z,161338.47
2022-07-27T18:33:36.198Z,161310.31
2022-07-27T18:36:07.775Z,161283.47
2022-07-27T18:38:39.150Z,161259.31
2022-07-27T18:41:12.012Z,161228.44
2022-07-27T18:43:43.082Z,161196.28
2022-07-27T18:46:13.560Z,161158.72
2022-07-27T18:48:42.074Z,161137.25
2022-07-27T18:51:11.691Z,161130.56
2022-07-27T18:53:44.791Z,161118.53
2022-07-27T18:56:13.932Z,161106.44
2022-07-27T18:58:45.029Z,161095.69
2022-07-27T19:01:13.197Z,161062.22
2022-07-27T19:03:42.401Z,161042.13
2022-07-27T19:06:11.421Z,161028.72
2022-07-27T19:08:45.811Z,161017.97
2022-07-27T19:11:15.417Z,161001.91
2022-07-27T19:13:46.025Z,160997.91
2022-07-27T19:16:13.535Z,160987.16
2022-07-27T19:18:41.918Z,160954.91
2022-07-27T19:21:10.371Z,160922.78
2022-07-27T19:23:37.575Z,160908.06
2022-07-27T19:26:05.060Z,160908.06
2022-07-27T19:28:32.205Z,160906.72
2022-07-27T19:30:59.919Z,160882.59
2022-07-27T19:33:27.448Z,160866.50
2022-07-27T19:35:55.704Z,160855.78
2022-07-27T19:38:22.957Z,160830.34
2022-07-27T19:40:50.471Z,160847.75
2022-07-27T19:43:17.881Z,160850.44
2022-07-27T19:45:45.359Z,160846.41
2022-07-27T19:48:12.842Z,160869.19
2022-07-27T19:50:40.299Z,160886.63
2022-07-27T19:53:08.035Z,160886.63
2022-07-27T19:55:35.519Z,160901.34
2022-07-27T19:58:03.106Z,160925.44
2022-07-27T20:00:30.918Z,160938.84
2022-07-27T20:02:58.406Z,160945.56
2022-07-27T20:05:25.654Z,160949.59
2022-07-27T20:07:53.555Z,160944.22
2022-07-27T20:10:21.916Z,160934.88
2022-07-27T20:12:49.267Z,160938.84
2022-07-27T20:15:16.586Z,160937.53
2022-07-27T20:17:44.023Z,160930.81
2022-07-27T20:20:11.729Z,160926.78
2022-07-27T20:22:40.887Z,160906.72
2022-07-27T20:25:10.564Z,160889.28
2022-07-27T20:27:38.032Z,160875.88
2022-07-27T20:30:05.643Z,160862.47
2022-07-27T20:32:33.191Z,160851.78
2022-07-27T20:35:01.278Z,160841.03
2022-07-27T20:37:28.972Z,160823.66
2022-07-27T20:39:56.358Z,160811.59
2022-07-27T20:42:23.720Z,160800.91
2022-07-27T20:44:50.891Z,160780.78
2022-07-27T20:47:18.449Z,160771.38
2022-07-27T20:49:45.719Z,160748.63
2022-07-27T20:52:12.846Z,160740.59
2022-07-27T20:54:40.647Z,160731.25
2022-07-27T20:57:07.983Z,160719.16
2022-07-27T20:59:35.229Z,160699.06
2022-07-27T21:02:02.724Z,160684.28
2022-07-27T21:04:30.098Z,160669.56
2022-07-27T21:06:57.266Z,160649.47
2022-07-27T21:09:25.073Z,160645.50
2022-07-27T21:11:52.518Z,160641.44
2022-07-27T21:14:19.629Z,160621.34
2022-07-27T21:16:47.241Z,160633.44
2022-07-27T21:19:14.669Z,160649.47
2022-07-27T21:21:42.219Z,160658.88
2022-07-27T21:24:16.157Z,160687.06
2022-07-27T21:26:48.619Z,160688.38
2022-07-27T21:29:17.104Z,160672.22
2022-07-27T21:31:49.292Z,160691.03
2022-07-27T21:34:19.286Z,160684.28
2022-07-27T21:36:47.795Z,160680.31
2022-07-27T21:39:15.799Z,160673.59
2022-07-27T21:41:43.280Z,160665.59
2022-07-27T21:44:10.989Z,160646.81
2022-07-27T21:46:38.516Z,160614.66
2022-07-27T21:49:06.083Z,160577.19
2022-07-27T21:51:33.328Z,160575.88
2022-07-27T21:54:00.502Z,160523.63
2022-07-27T21:56:28.451Z,160476.81
2022-07-27T21:58:55.816Z,160409.88
2022-07-27T22:01:23.205Z,160368.31
2022-07-27T22:03:51.141Z,160345.59
2022-07-27T22:06:18.599Z,160326.88
2022-07-27T22:08:46.354Z,160297.41
2022-07-27T22:11:14.033Z,160259.97
2022-07-27T22:13:41.468Z,160238.56
2022-07-27T22:16:09.406Z,160222.53
2022-07-27T22:18:36.933Z,160205.13
2022-07-27T22:21:04.402Z,160207.81
2022-07-27T22:23:31.654Z,160183.72
2022-07-27T22:25:58.993Z,160158.34
2022-07-27T22:28:26.506Z,160134.22
2022-07-27T22:30:59.980Z,160108.84
2022-07-27T22:33:44.526Z,160088.78
2022-07-27T22:36:12.782Z,160078.06
2022-07-27T22:38:40.194Z,160068.72
2022-07-27T22:41:08.125Z,160062.03
2022-07-27T22:43:35.494Z,160048.63
2022-07-27T22:46:04.161Z,160049.94
2022-07-27T22:48:31.825Z,160016.56
2022-07-27T22:50:59.004Z,160008.53
2022-07-27T22:53:26.747Z,160004.50
2022-07-27T22:55:54.220Z,160001.84
2022-07-27T22:58:21.765Z,160004.50
2022-07-27T23:00:49.105Z,160012.53
2022-07-27T23:03:16.987Z,160012.53
2022-07-27T23:05:44.410Z,160023.25
2022-07-27T23:08:11.800Z,160039.25
2022-07-27T23:10:51.139Z,160033.91
2022-07-27T23:13:19.669Z,160023.25
2022-07-27T23:15:47.944Z,160013.84
2022-07-27T23:18:16.598Z,159985.78
2022-07-27T23:20:44.276Z,159968.41
2022-07-27T23:23:16.293Z,159964.38
2022-07-27T23:25:48.668Z,159957.69
2022-07-27T23:28:17.280Z,159955.03
2022-07-27T23:30:44.584Z,159951.00
2022-07-27T23:33:11.934Z,159977.75
2022-07-27T23:35:39.460Z,159967.09
2022-07-27T23:38:06.623Z,159980.47
2022-07-27T23:40:33.984Z,159957.69
2022-07-27T23:43:02.292Z,159933.66
2022-07-27T23:45:29.648Z,159912.28
2022-07-27T23:47:56.897Z,159873.50
2022-07-27T23:50:24.453Z,159850.78
2022-07-27T23:52:52.083Z,159833.44
2022-07-27T23:55:19.289Z,159800.00
2022-07-27T23:57:47.223Z,159784.00
